createdAt,value
2019-05-22T00:38:07.140Z,1011.93
2019-05-22T00:38:07.688Z,1011.97
2019-05-22T00:38:08.285Z,1012.00
2019-05-22T00:38:09.128Z,1012.01
2019-05-22T00:38:09.807Z,1012.06
2019-05-22T00:38:10.275Z,1012.04
2019-05-22T00:39:05.783Z,1011.88
2019-05-22T00:39:06.353Z,1011.97
2019-05-22T00:39:06.954Z,1012.04
2019-05-22T00:39:07.554Z,1012.04
2019-05-22T00:39:08.154Z,1012.03
2019-05-22T00:39:08.753Z,1012.04
2019-05-22T00:40:04.457Z,1011.89
2019-05-22T00:40:05.031Z,1011.96
2019-05-22T00:40:05.631Z,1011.98
2019-05-22T00:40:06.231Z,1011.98
2019-05-22T00:40:06.830Z,1011.98
2019-05-22T00:40:07.432Z,1012.03
2019-05-22T00:41:02.110Z,1011.89
2019-05-22T00:41:02.685Z,1011.94
2019-05-22T00:41:03.292Z,1011.95
2019-05-22T00:41:03.899Z,1011.96
2019-05-22T00:41:04.483Z,1011.99
2019-05-22T00:42:00.794Z,1011.87
2019-05-22T00:42:01.358Z,1011.88
2019-05-22T00:42:01.959Z,1011.91
2019-05-22T00:42:02.562Z,1011.92
2019-05-22T00:42:03.159Z,1011.96
2019-05-22T00:42:03.760Z,1011.95
2019-05-22T00:43:04.061Z,1011.89
2019-05-22T00:43:04.159Z,1011.92
2019-05-22T00:43:04.244Z,1011.92
2019-05-22T00:43:04.256Z,1012.00
2019-05-22T00:43:05.525Z,1012.00
2019-05-22T00:43:06.759Z,1011.99
2019-05-22T00:43:56.092Z,1011.92
2019-05-22T00:43:56.663Z,1011.87
2019-05-22T00:43:57.263Z,1011.97
2019-05-22T00:43:57.864Z,1011.98
2019-05-22T00:43:58.464Z,1012.00
2019-05-22T00:44:54.771Z,1011.97
2019-05-22T00:44:55.340Z,1011.94
2019-05-22T00:44:55.939Z,1011.99
2019-05-22T00:44:56.539Z,1012.02
2019-05-22T00:44:57.138Z,1011.99
2019-05-22T00:44:57.738Z,1011.95
2019-05-22T00:45:52.422Z,1011.92
2019-05-22T00:45:52.993Z,1011.90
2019-05-22T00:45:53.591Z,1011.91
2019-05-22T00:45:54.192Z,1011.99
2019-05-22T00:45:54.805Z,1011.98
2019-05-22T00:45:55.393Z,1012.00
2019-05-22T00:46:50.072Z,1012.02
2019-05-22T00:46:50.645Z,1012.01
2019-05-22T00:46:51.245Z,1012.05
2019-05-22T00:46:51.846Z,1012.07
2019-05-22T00:46:52.444Z,1012.07
2019-05-22T00:47:48.747Z,1011.95
2019-05-22T00:47:49.319Z,1011.89
2019-05-22T00:47:49.920Z,1011.91
2019-05-22T00:47:50.519Z,1011.97
2019-05-22T00:47:51.119Z,1011.97
2019-05-22T00:47:51.721Z,1011.96
2019-05-22T00:48:46.403Z,1011.96
2019-05-22T00:48:46.971Z,1011.93
2019-05-22T00:48:47.571Z,1011.96
2019-05-22T00:48:48.172Z,1011.99
2019-05-22T00:48:48.772Z,1012.02
2019-05-22T00:48:49.373Z,1012.00
2019-05-22T00:49:44.051Z,1011.96
2019-05-22T00:49:44.624Z,1011.92
2019-05-22T00:49:45.223Z,1011.94
2019-05-22T00:49:45.826Z,1011.99
2019-05-22T00:49:46.425Z,1011.96
2019-05-22T00:50:41.703Z,1012.00
2019-05-22T00:50:42.276Z,1011.93
2019-05-22T00:50:42.876Z,1011.95
2019-05-22T00:50:43.475Z,1011.98
2019-05-22T00:50:44.125Z,1011.96
2019-05-22T00:50:44.690Z,1011.95
2019-05-22T00:51:39.355Z,1011.96
2019-05-22T00:51:39.930Z,1011.91
2019-05-22T00:51:40.528Z,1011.97
2019-05-22T00:51:41.139Z,1011.98
2019-05-22T00:51:41.728Z,1011.99
2019-05-22T00:51:42.327Z,1011.99
2019-05-22T00:52:38.033Z,1012.03
2019-05-22T00:52:38.603Z,1011.97
2019-05-22T00:52:39.202Z,1012.03
2019-05-22T00:52:39.806Z,1012.04
2019-05-22T00:52:40.406Z,1012.02
2019-05-22T00:52:42.205Z,1012.00
2019-05-22T00:53:36.705Z,1011.95
2019-05-22T00:53:37.279Z,1011.89
2019-05-22T00:53:37.878Z,1011.92
2019-05-22T00:53:38.477Z,1011.94
2019-05-22T00:53:39.090Z,1011.95
2019-05-22T00:54:34.359Z,1012.04
2019-05-22T00:54:34.932Z,1011.94
2019-05-22T00:54:35.531Z,1012.00
2019-05-22T00:54:36.130Z,1012.04
2019-05-22T00:54:36.732Z,1011.99
2019-05-22T00:54:37.332Z,1012.00
2019-05-22T00:55:33.034Z,1012.04
2019-05-22T00:55:33.606Z,1011.96
2019-05-22T00:55:34.208Z,1012.02
2019-05-22T00:55:34.808Z,1012.01
2019-05-22T00:55:35.405Z,1012.01
2019-05-22T00:55:36.006Z,1012.04
2019-05-22T00:56:31.717Z,1012.10
2019-05-22T00:56:32.282Z,1011.98
2019-05-22T00:56:32.882Z,1012.06
2019-05-22T00:56:33.481Z,1012.00
2019-05-22T00:56:34.082Z,1012.06
2019-05-22T00:56:34.687Z,1012.05
2019-05-22T00:57:30.385Z,1012.07
2019-05-22T00:57:30.959Z,1011.98
2019-05-22T00:57:31.558Z,1012.05
2019-05-22T00:57:32.157Z,1012.06
2019-05-22T00:57:32.756Z,1012.05
2019-05-22T00:57:34.560Z,1012.05
2019-05-22T00:58:29.059Z,1012.10
2019-05-22T00:58:29.637Z,1012.05
2019-05-22T00:58:30.235Z,1012.08
2019-05-22T00:58:30.833Z,1012.08
2019-05-22T00:58:31.444Z,1012.10
2019-05-22T00:59:26.716Z,1012.04
2019-05-22T00:59:27.285Z,1011.95
2019-05-22T00:59:27.886Z,1012.01
2019-05-22T00:59:28.486Z,1012.03
2019-05-22T00:59:29.089Z,1012.00
2019-05-22T00:59:29.686Z,1011.98
2019-05-22T01:00:24.367Z,1012.15
2019-05-22T01:00:24.946Z,1012.04
2019-05-22T01:00:25.537Z,1012.07
2019-05-22T01:00:26.137Z,1012.05
2019-05-22T01:00:26.756Z,1012.05
2019-05-22T01:00:27.335Z,1012.06
2019-05-22T01:01:22.018Z,1012.11
2019-05-22T01:01:22.788Z,1012.01
2019-05-22T01:01:23.188Z,1012.04
2019-05-22T01:01:23.787Z,1012.10
2019-05-22T01:01:24.391Z,1012.10
2019-05-22T01:02:20.692Z,1012.01
2019-05-22T01:02:21.264Z,1011.89
2019-05-22T01:02:21.866Z,1011.96
2019-05-22T01:02:22.465Z,1011.99
2019-05-22T01:02:23.067Z,1012.00
2019-05-22T01:02:23.663Z,1012.02
2019-05-22T01:03:19.367Z,1012.09
2019-05-22T01:03:19.940Z,1012.02
2019-05-22T01:03:20.541Z,1012.05
2019-05-22T01:03:21.150Z,1012.06
2019-05-22T01:03:21.740Z,1012.06
2019-05-22T01:03:22.342Z,1012.07
2019-05-22T01:04:17.020Z,1012.06
2019-05-22T01:04:17.593Z,1011.95
2019-05-22T01:04:18.193Z,1011.98
2019-05-22T01:04:18.792Z,1012.02
2019-05-22T01:04:19.393Z,1012.02
2019-05-22T01:04:21.193Z,1012.03
2019-05-22T01:05:15.694Z,1012.05
2019-05-22T01:05:16.269Z,1011.94
2019-05-22T01:05:16.865Z,1012.04
2019-05-22T01:05:17.468Z,1012.02
2019-05-22T01:05:18.074Z,1011.99
2019-05-22T01:06:14.371Z,1012.10
2019-05-22T01:06:14.944Z,1012.04
2019-05-22T01:06:15.542Z,1012.05
2019-05-22T01:06:16.149Z,1012.04
2019-05-22T01:06:16.742Z,1012.05
2019-05-22T01:06:17.348Z,1012.08
2019-05-22T01:07:13.047Z,1012.08
2019-05-22T01:07:13.619Z,1012.00
2019-05-22T01:07:14.218Z,1011.98
2019-05-22T01:07:14.818Z,1012.05
2019-05-22T01:07:15.419Z,1012.02
2019-05-22T01:07:16.019Z,1012.05
2019-05-22T01:08:11.723Z,1012.08
2019-05-22T01:08:12.294Z,1011.98
2019-05-22T01:08:12.895Z,1011.99
2019-05-22T01:08:13.494Z,1012.03
2019-05-22T01:08:14.095Z,1012.03
2019-05-22T01:08:14.694Z,1012.05
2019-05-22T01:09:09.376Z,1012.08
2019-05-22T01:09:09.947Z,1012.00
2019-05-22T01:09:10.545Z,1012.02
2019-05-22T01:09:11.149Z,1012.06
2019-05-22T01:09:11.746Z,1012.06
2019-05-22T01:10:08.122Z,1012.12
2019-05-22T01:10:08.621Z,1012.01
2019-05-22T01:10:09.222Z,1012.03
2019-05-22T01:10:09.820Z,1012.04
2019-05-22T01:10:10.421Z,1012.09
2019-05-22T01:10:11.098Z,1012.06
2019-05-22T01:11:06.725Z,1012.11
2019-05-22T01:11:07.298Z,1012.00
2019-05-22T01:11:07.897Z,1012.02
2019-05-22T01:11:08.497Z,1012.03
2019-05-22T01:11:09.097Z,1012.07
2019-05-22T01:11:09.697Z,1012.07
2019-05-22T01:12:04.383Z,1012.11
2019-05-22T01:12:04.951Z,1012.01
2019-05-22T01:12:05.552Z,1012.04
2019-05-22T01:12:06.151Z,1012.04
2019-05-22T01:12:06.751Z,1012.11
2019-05-22T01:12:08.550Z,1012.09
2019-05-22T01:13:02.029Z,1012.12
2019-05-22T01:13:02.602Z,1012.02
2019-05-22T01:13:03.203Z,1012.08
2019-05-22T01:13:03.803Z,1012.09
2019-05-22T01:13:04.408Z,1012.08
2019-05-22T01:14:00.704Z,1012.16
2019-05-22T01:14:01.280Z,1012.05
2019-05-22T01:14:01.880Z,1012.11
2019-05-22T01:14:02.477Z,1012.11
2019-05-22T01:14:03.077Z,1012.15
2019-05-22T01:14:03.677Z,1012.11
2019-05-22T01:14:58.391Z,1012.18
2019-05-22T01:14:58.929Z,1012.08
2019-05-22T01:14:59.529Z,1012.09
2019-05-22T01:15:00.135Z,1012.11
2019-05-22T01:15:00.729Z,1012.15
2019-05-22T01:15:01.343Z,1012.14
2019-05-22T01:15:56.009Z,1012.22
2019-05-22T01:15:56.583Z,1012.14
2019-05-22T01:15:57.181Z,1012.19
2019-05-22T01:15:57.784Z,1012.15
2019-05-22T01:15:58.380Z,1012.19
2019-05-22T01:16:54.683Z,1012.24
2019-05-22T01:16:55.256Z,1012.13
2019-05-22T01:16:55.857Z,1012.19
2019-05-22T01:16:56.455Z,1012.18
2019-05-22T01:16:57.056Z,1012.19
2019-05-22T01:16:57.656Z,1012.21
2019-05-22T01:17:52.340Z,1012.28
2019-05-22T01:17:52.909Z,1012.17
2019-05-22T01:17:53.509Z,1012.18
2019-05-22T01:17:54.111Z,1012.19
2019-05-22T01:17:54.709Z,1012.21
2019-05-22T01:17:55.308Z,1012.19
2019-05-22T01:18:51.034Z,1012.26
2019-05-22T01:18:51.583Z,1012.16
2019-05-22T01:18:52.183Z,1012.19
2019-05-22T01:18:52.782Z,1012.23
2019-05-22T01:18:53.384Z,1012.23
2019-05-22T01:18:55.186Z,1012.23
2019-05-22T01:19:48.665Z,1012.27
2019-05-22T01:19:49.237Z,1012.16
2019-05-22T01:19:49.837Z,1012.18
2019-05-22T01:19:50.435Z,1012.19
2019-05-22T01:19:51.051Z,1012.22
2019-05-22T01:20:47.341Z,1012.28
2019-05-22T01:20:47.911Z,1012.16
2019-05-22T01:20:48.513Z,1012.20
2019-05-22T01:20:49.111Z,1012.26
2019-05-22T01:20:49.711Z,1012.22
2019-05-22T01:20:50.311Z,1012.23
2019-05-22T01:21:46.013Z,1012.32
2019-05-22T01:21:46.601Z,1012.16
2019-05-22T01:21:47.188Z,1012.22
2019-05-22T01:21:47.786Z,1012.24
2019-05-22T01:21:48.385Z,1012.26
2019-05-22T01:21:48.987Z,1012.25
2019-05-22T01:22:47.329Z,1012.20
2019-05-22T01:22:47.340Z,1012.30
2019-05-22T01:22:47.398Z,1012.24
2019-05-22T01:22:47.510Z,1012.23
2019-05-22T01:22:47.568Z,1012.28
2019-05-22T01:22:47.660Z,1012.29
2019-05-22T01:23:43.365Z,1012.31
2019-05-22T01:23:43.939Z,1012.19
2019-05-22T01:23:44.537Z,1012.20
2019-05-22T01:23:45.138Z,1012.27
2019-05-22T01:23:45.738Z,1012.24
2019-05-22T01:23:47.542Z,1012.29
2019-05-22T01:24:41.021Z,1012.34
2019-05-22T01:24:41.592Z,1012.16
2019-05-22T01:24:42.190Z,1012.22
2019-05-22T01:24:42.797Z,1012.24
2019-05-22T01:24:43.396Z,1012.25
2019-05-22T01:25:38.674Z,1012.36
2019-05-22T01:25:39.244Z,1012.19
2019-05-22T01:25:39.845Z,1012.26
2019-05-22T01:25:40.444Z,1012.27
2019-05-22T01:25:41.043Z,1012.29
2019-05-22T01:25:41.647Z,1012.27
2019-05-22T01:26:36.321Z,1012.38
2019-05-22T01:26:36.895Z,1012.20
2019-05-22T01:26:37.494Z,1012.25
2019-05-22T01:26:38.094Z,1012.30
2019-05-22T01:26:38.697Z,1012.29
2019-05-22T01:26:39.296Z,1012.31
2019-05-22T01:27:34.997Z,1012.41
2019-05-22T01:27:35.569Z,1012.25
2019-05-22T01:27:36.173Z,1012.28
2019-05-22T01:27:36.770Z,1012.32
2019-05-22T01:27:37.410Z,1012.33
2019-05-22T01:27:39.171Z,1012.31
2019-05-22T01:28:33.672Z,1012.41
2019-05-22T01:28:34.246Z,1012.25
2019-05-22T01:28:34.846Z,1012.31
2019-05-22T01:28:35.444Z,1012.30
2019-05-22T01:28:36.045Z,1012.30
2019-05-22T01:29:31.326Z,1012.41
2019-05-22T01:29:31.899Z,1012.26
2019-05-22T01:29:32.497Z,1012.29
2019-05-22T01:29:33.099Z,1012.31
2019-05-22T01:29:33.697Z,1012.33
2019-05-22T01:29:34.312Z,1012.32
2019-05-22T01:30:30.000Z,1012.36
2019-05-22T01:30:30.571Z,1012.21
2019-05-22T01:30:31.173Z,1012.25
2019-05-22T01:30:31.771Z,1012.31
2019-05-22T01:30:32.371Z,1012.26
2019-05-22T01:30:32.972Z,1012.32
2019-05-22T01:31:28.675Z,1012.38
2019-05-22T01:31:29.250Z,1012.22
2019-05-22T01:31:29.848Z,1012.30
2019-05-22T01:31:30.448Z,1012.26
2019-05-22T01:31:31.048Z,1012.29
2019-05-22T01:31:31.649Z,1012.35
2019-05-22T01:32:27.355Z,1012.40
2019-05-22T01:32:27.924Z,1012.27
2019-05-22T01:32:28.526Z,1012.26
2019-05-22T01:32:29.125Z,1012.32
2019-05-22T01:32:29.721Z,1012.31
2019-05-22T01:32:31.522Z,1012.30
2019-05-22T01:33:26.030Z,1012.39
2019-05-22T01:33:26.599Z,1012.24
2019-05-22T01:33:27.198Z,1012.30
2019-05-22T01:33:27.799Z,1012.29
2019-05-22T01:33:28.399Z,1012.33
2019-05-22T01:34:23.682Z,1012.42
2019-05-22T01:34:24.257Z,1012.23
2019-05-22T01:34:24.854Z,1012.29
2019-05-22T01:34:25.453Z,1012.27
2019-05-22T01:34:26.052Z,1012.30
2019-05-22T01:34:26.655Z,1012.35
2019-05-22T01:35:22.358Z,1012.36
2019-05-22T01:35:22.927Z,1012.23
2019-05-22T01:35:23.528Z,1012.29
2019-05-22T01:35:24.127Z,1012.29
2019-05-22T01:35:24.727Z,1012.32
2019-05-22T01:35:25.328Z,1012.35
2019-05-22T01:36:21.033Z,1012.33
2019-05-22T01:36:21.602Z,1012.22
2019-05-22T01:36:22.215Z,1012.27
2019-05-22T01:36:22.803Z,1012.33
2019-05-22T01:36:23.401Z,1012.32
2019-05-22T01:36:24.008Z,1012.29
2019-05-22T01:37:18.684Z,1012.36
2019-05-22T01:37:19.257Z,1012.24
2019-05-22T01:37:19.856Z,1012.30
2019-05-22T01:37:20.456Z,1012.30
2019-05-22T01:37:21.055Z,1012.30
2019-05-22T01:38:17.362Z,1012.41
2019-05-22T01:38:17.931Z,1012.32
2019-05-22T01:38:18.536Z,1012.30
2019-05-22T01:38:19.132Z,1012.35
2019-05-22T01:38:19.730Z,1012.35
2019-05-22T01:38:20.330Z,1012.38
2019-05-22T01:39:15.010Z,1012.42
2019-05-22T01:39:15.591Z,1012.29
2019-05-22T01:39:16.182Z,1012.32
2019-05-22T01:39:16.783Z,1012.33
2019-05-22T01:39:17.389Z,1012.36
2019-05-22T01:39:17.981Z,1012.36
2019-05-22T01:40:13.688Z,1012.42
2019-05-22T01:40:14.259Z,1012.27
2019-05-22T01:40:14.859Z,1012.31
2019-05-22T01:40:15.462Z,1012.35
2019-05-22T01:40:16.058Z,1012.37
2019-05-22T01:40:17.857Z,1012.35
2019-05-22T01:41:12.360Z,1012.41
2019-05-22T01:41:12.932Z,1012.24
2019-05-22T01:41:13.534Z,1012.31
2019-05-22T01:41:14.134Z,1012.33
2019-05-22T01:41:14.748Z,1012.35
2019-05-22T01:42:11.037Z,1012.46
2019-05-22T01:42:11.610Z,1012.34
2019-05-22T01:42:12.209Z,1012.37
2019-05-22T01:42:12.812Z,1012.37
2019-05-22T01:42:13.409Z,1012.38
2019-05-22T01:42:14.009Z,1012.40
2019-05-22T01:43:08.688Z,1012.49
2019-05-22T01:43:09.262Z,1012.32
2019-05-22T01:43:09.861Z,1012.32
2019-05-22T01:43:10.462Z,1012.40
2019-05-22T01:43:11.062Z,1012.40
2019-05-22T01:43:11.662Z,1012.38
2019-05-22T01:44:06.343Z,1012.43
2019-05-22T01:44:06.916Z,1012.31
2019-05-22T01:44:07.513Z,1012.36
2019-05-22T01:44:08.120Z,1012.39
2019-05-22T01:44:08.713Z,1012.42
2019-05-22T01:45:06.833Z,1012.42
2019-05-22T01:45:06.938Z,1012.29
2019-05-22T01:45:06.946Z,1012.29
2019-05-22T01:45:07.119Z,1012.34
2019-05-22T01:45:07.386Z,1012.34
2019-05-22T01:45:07.989Z,1012.33
2019-05-22T01:46:03.696Z,1012.46
2019-05-22T01:46:04.262Z,1012.31
2019-05-22T01:46:04.863Z,1012.35
2019-05-22T01:46:05.462Z,1012.38
2019-05-22T01:46:06.063Z,1012.41
2019-05-22T01:46:06.661Z,1012.36
2019-05-22T01:47:02.369Z,1012.53
2019-05-22T01:47:02.946Z,1012.34
2019-05-22T01:47:03.540Z,1012.35
2019-05-22T01:47:04.140Z,1012.40
2019-05-22T01:47:04.739Z,1012.40
2019-05-22T01:47:05.340Z,1012.36
2019-05-22T01:48:01.043Z,1012.39
2019-05-22T01:48:01.619Z,1012.29
2019-05-22T01:48:02.216Z,1012.29
2019-05-22T01:48:02.813Z,1012.33
2019-05-22T01:48:03.414Z,1012.38
2019-05-22T01:48:05.213Z,1012.35
2019-05-22T01:48:59.719Z,1012.45
2019-05-22T01:49:00.293Z,1012.29
2019-05-22T01:49:00.892Z,1012.35
2019-05-22T01:49:01.492Z,1012.39
2019-05-22T01:49:02.092Z,1012.38
2019-05-22T01:49:58.395Z,1012.45
2019-05-22T01:49:58.968Z,1012.26
2019-05-22T01:49:59.570Z,1012.34
2019-05-22T01:50:00.183Z,1012.35
2019-05-22T01:50:00.767Z,1012.33
2019-05-22T01:50:01.395Z,1012.38
2019-05-22T01:50:56.050Z,1012.40
2019-05-22T01:50:56.619Z,1012.25
2019-05-22T01:50:57.220Z,1012.34
2019-05-22T01:50:57.853Z,1012.32
2019-05-22T01:50:58.470Z,1012.36
2019-05-22T01:50:59.020Z,1012.37
2019-05-22T01:51:53.701Z,1012.41
2019-05-22T01:51:54.273Z,1012.29
2019-05-22T01:51:54.871Z,1012.30
2019-05-22T01:51:55.471Z,1012.28
2019-05-22T01:51:56.075Z,1012.32
2019-05-22T01:52:52.373Z,1012.42
2019-05-22T01:52:52.950Z,1012.25
2019-05-22T01:52:53.547Z,1012.33
2019-05-22T01:52:54.147Z,1012.33
2019-05-22T01:52:54.747Z,1012.31
2019-05-22T01:52:55.346Z,1012.33
2019-05-22T01:53:51.049Z,1012.40
2019-05-22T01:53:51.624Z,1012.24
2019-05-22T01:53:52.222Z,1012.32
2019-05-22T01:53:52.822Z,1012.30
2019-05-22T01:53:53.450Z,1012.29
2019-05-22T01:53:54.075Z,1012.30
2019-05-22T01:54:49.726Z,1012.43
2019-05-22T01:54:50.298Z,1012.28
2019-05-22T01:54:50.914Z,1012.34
2019-05-22T01:54:51.499Z,1012.30
2019-05-22T01:54:52.096Z,1012.33
2019-05-22T01:54:52.702Z,1012.32
2019-05-22T01:55:47.394Z,1012.45
2019-05-22T01:55:47.951Z,1012.31
2019-05-22T01:55:48.551Z,1012.28
2019-05-22T01:55:49.151Z,1012.35
2019-05-22T01:55:49.753Z,1012.38
2019-05-22T01:56:46.057Z,1012.44
2019-05-22T01:56:46.625Z,1012.28
2019-05-22T01:56:47.225Z,1012.30
2019-05-22T01:56:47.824Z,1012.34
2019-05-22T01:56:48.432Z,1012.36
2019-05-22T01:56:49.025Z,1012.34
2019-05-22T01:57:43.704Z,1012.46
2019-05-22T01:57:44.278Z,1012.27
2019-05-22T01:57:44.877Z,1012.30
2019-05-22T01:57:45.479Z,1012.37
2019-05-22T01:57:46.078Z,1012.37
2019-05-22T01:57:46.677Z,1012.36
2019-05-22T01:58:41.358Z,1012.50
2019-05-22T01:58:41.930Z,1012.33
2019-05-22T01:58:42.530Z,1012.35
2019-05-22T01:58:43.130Z,1012.39
2019-05-22T01:58:43.739Z,1012.43
2019-05-22T01:59:39.015Z,1012.47
2019-05-22T01:59:39.583Z,1012.34
2019-05-22T01:59:40.183Z,1012.33
2019-05-22T01:59:40.782Z,1012.34
2019-05-22T01:59:41.382Z,1012.36
2019-05-22T01:59:41.986Z,1012.39
2019-05-22T02:00:37.684Z,1012.47
2019-05-22T02:00:38.259Z,1012.35
2019-05-22T02:00:38.904Z,1012.34
2019-05-22T02:00:39.453Z,1012.40
2019-05-22T02:00:40.054Z,1012.42
2019-05-22T02:00:40.654Z,1012.41
2019-05-22T02:01:36.360Z,1012.46
2019-05-22T02:01:36.949Z,1012.37
2019-05-22T02:01:37.534Z,1012.35
2019-05-22T02:01:38.135Z,1012.40
2019-05-22T02:01:38.732Z,1012.43
2019-05-22T02:01:39.332Z,1012.44
2019-05-22T02:02:35.034Z,1012.56
2019-05-22T02:02:35.607Z,1012.42
2019-05-22T02:02:36.207Z,1012.41
2019-05-22T02:02:36.808Z,1012.42
2019-05-22T02:02:37.406Z,1012.45
2019-05-22T02:02:39.207Z,1012.47
2019-05-22T02:03:32.690Z,1012.51
2019-05-22T02:03:33.259Z,1012.37
2019-05-22T02:03:33.860Z,1012.42
2019-05-22T02:03:34.462Z,1012.44
2019-05-22T02:03:35.059Z,1012.45
2019-05-22T02:04:30.339Z,1012.47
2019-05-22T02:04:30.913Z,1012.32
2019-05-22T02:04:31.513Z,1012.34
2019-05-22T02:04:32.113Z,1012.41
2019-05-22T02:04:32.714Z,1012.41
2019-05-22T02:04:33.311Z,1012.40
2019-05-22T02:05:29.017Z,1012.49
2019-05-22T02:05:29.590Z,1012.40
2019-05-22T02:05:30.187Z,1012.45
2019-05-22T02:05:30.788Z,1012.42
2019-05-22T02:05:31.390Z,1012.44
2019-05-22T02:05:31.988Z,1012.45
2019-05-22T02:06:27.694Z,1012.49
2019-05-22T02:06:28.264Z,1012.39
2019-05-22T02:06:28.867Z,1012.37
2019-05-22T02:06:29.462Z,1012.41
2019-05-22T02:06:30.065Z,1012.43
2019-05-22T02:06:30.666Z,1012.44
2019-05-22T02:07:26.365Z,1012.52
2019-05-22T02:07:26.942Z,1012.39
2019-05-22T02:07:27.537Z,1012.39
2019-05-22T02:07:28.139Z,1012.41
2019-05-22T02:07:28.741Z,1012.38
2019-05-22T02:07:30.544Z,1012.41
2019-05-22T02:08:24.020Z,1012.46
2019-05-22T02:08:24.593Z,1012.35
2019-05-22T02:08:25.191Z,1012.35
2019-05-22T02:08:25.790Z,1012.42
2019-05-22T02:08:26.394Z,1012.42
2019-05-22T02:09:22.693Z,1012.49
2019-05-22T02:09:23.269Z,1012.35
2019-05-22T02:09:23.888Z,1012.36
2019-05-22T02:09:24.542Z,1012.42
2019-05-22T02:09:25.126Z,1012.42
2019-05-22T02:09:25.710Z,1012.40
2019-05-22T02:10:20.351Z,1012.44
2019-05-22T02:10:20.918Z,1012.37
2019-05-22T02:10:21.519Z,1012.38
2019-05-22T02:10:22.117Z,1012.41
2019-05-22T02:10:22.719Z,1012.39
2019-05-22T02:10:23.318Z,1012.39
2019-05-22T02:11:19.020Z,1012.48
2019-05-22T02:11:19.594Z,1012.36
2019-05-22T02:11:20.194Z,1012.40
2019-05-22T02:11:20.793Z,1012.39
2019-05-22T02:11:21.395Z,1012.40
2019-05-22T02:11:23.192Z,1012.42
2019-05-22T02:12:17.696Z,1012.47
2019-05-22T02:12:18.326Z,1012.36
2019-05-22T02:12:18.871Z,1012.37
2019-05-22T02:12:19.468Z,1012.41
2019-05-22T02:12:20.069Z,1012.42
2019-05-22T02:13:15.349Z,1012.48
2019-05-22T02:13:15.922Z,1012.34
2019-05-22T02:13:16.523Z,1012.40
2019-05-22T02:13:17.121Z,1012.40
2019-05-22T02:13:17.721Z,1012.42
2019-05-22T02:13:18.326Z,1012.41
2019-05-22T02:14:12.999Z,1012.49
2019-05-22T02:14:13.573Z,1012.38
2019-05-22T02:14:14.174Z,1012.38
2019-05-22T02:14:14.830Z,1012.44
2019-05-22T02:14:15.376Z,1012.44
2019-05-22T02:14:15.973Z,1012.45
2019-05-22T02:15:10.652Z,1012.48
2019-05-22T02:15:11.228Z,1012.34
2019-05-22T02:15:11.826Z,1012.38
2019-05-22T02:15:12.428Z,1012.38
2019-05-22T02:15:13.025Z,1012.40
2019-05-22T02:16:08.303Z,1012.50
2019-05-22T02:16:08.877Z,1012.38
2019-05-22T02:16:09.483Z,1012.42
2019-05-22T02:16:10.078Z,1012.43
2019-05-22T02:16:10.677Z,1012.43
2019-05-22T02:16:11.276Z,1012.41
2019-05-22T02:17:06.980Z,1012.49
2019-05-22T02:17:07.552Z,1012.33
2019-05-22T02:17:08.153Z,1012.38
2019-05-22T02:17:08.752Z,1012.42
2019-05-22T02:17:09.359Z,1012.44
2019-05-22T02:17:09.951Z,1012.46
2019-05-22T02:18:05.655Z,1012.50
2019-05-22T02:18:06.227Z,1012.40
2019-05-22T02:18:06.828Z,1012.39
2019-05-22T02:18:07.428Z,1012.36
2019-05-22T02:18:08.028Z,1012.41
2019-05-22T02:18:08.627Z,1012.39
2019-05-22T02:19:04.330Z,1012.44
2019-05-22T02:19:04.904Z,1012.35
2019-05-22T02:19:05.503Z,1012.38
2019-05-22T02:19:06.102Z,1012.44
2019-05-22T02:19:06.702Z,1012.43
2019-05-22T02:19:08.505Z,1012.41
2019-05-22T02:20:03.036Z,1012.49
2019-05-22T02:20:03.924Z,1012.34
2019-05-22T02:20:04.454Z,1012.35
2019-05-22T02:20:04.875Z,1012.39
2019-05-22T02:20:05.392Z,1012.40
2019-05-22T02:21:00.658Z,1012.46
2019-05-22T02:21:01.232Z,1012.34
2019-05-22T02:21:01.834Z,1012.36
2019-05-22T02:21:02.434Z,1012.39
2019-05-22T02:21:03.031Z,1012.38
2019-05-22T02:21:03.631Z,1012.43
2019-05-22T02:21:59.339Z,1012.49
2019-05-22T02:21:59.907Z,1012.38
2019-05-22T02:22:00.509Z,1012.41
2019-05-22T02:22:01.107Z,1012.45
2019-05-22T02:22:01.710Z,1012.45
2019-05-22T02:22:02.312Z,1012.48
2019-05-22T02:22:57.036Z,1012.51
2019-05-22T02:22:57.561Z,1012.41
2019-05-22T02:22:58.157Z,1012.43
2019-05-22T02:22:58.758Z,1012.47
2019-05-22T02:22:59.358Z,1012.45
2019-05-22T02:23:01.159Z,1012.47
2019-05-22T02:23:55.664Z,1012.54
2019-05-22T02:23:56.235Z,1012.43
2019-05-22T02:23:56.833Z,1012.40
2019-05-22T02:23:57.433Z,1012.43
2019-05-22T02:23:58.033Z,1012.44
2019-05-22T02:24:54.337Z,1012.54
2019-05-22T02:24:54.910Z,1012.40
2019-05-22T02:24:55.511Z,1012.44
2019-05-22T02:24:56.109Z,1012.48
2019-05-22T02:24:56.709Z,1012.47
2019-05-22T02:24:57.309Z,1012.49
2019-05-22T02:25:51.992Z,1012.54
2019-05-22T02:25:52.562Z,1012.41
2019-05-22T02:25:53.162Z,1012.43
2019-05-22T02:25:53.772Z,1012.49
2019-05-22T02:25:54.362Z,1012.47
2019-05-22T02:25:54.962Z,1012.45
2019-05-22T02:26:49.641Z,1012.52
2019-05-22T02:26:50.213Z,1012.40
2019-05-22T02:26:50.814Z,1012.43
2019-05-22T02:26:51.414Z,1012.42
2019-05-22T02:26:52.012Z,1012.43
2019-05-22T02:27:48.316Z,1012.53
2019-05-22T02:27:48.890Z,1012.40
2019-05-22T02:27:49.488Z,1012.40
2019-05-22T02:27:50.089Z,1012.42
2019-05-22T02:27:50.969Z,1012.42
2019-05-22T02:27:51.500Z,1012.47
2019-05-22T02:28:46.996Z,1012.54
2019-05-22T02:28:47.567Z,1012.42
2019-05-22T02:28:48.171Z,1012.38
2019-05-22T02:28:48.765Z,1012.47
2019-05-22T02:28:49.364Z,1012.46
2019-05-22T02:28:49.969Z,1012.50
2019-05-22T02:29:44.645Z,1012.53
2019-05-22T02:29:45.218Z,1012.46
2019-05-22T02:29:45.818Z,1012.46
2019-05-22T02:29:46.417Z,1012.49
2019-05-22T02:29:47.019Z,1012.51
2019-05-22T02:29:48.818Z,1012.52
2019-05-22T02:30:42.301Z,1012.55
2019-05-22T02:30:42.870Z,1012.40
2019-05-22T02:30:43.481Z,1012.42
2019-05-22T02:30:44.068Z,1012.43
2019-05-22T02:30:44.669Z,1012.44
2019-05-22T02:31:39.950Z,1012.54
2019-05-22T02:31:40.522Z,1012.40
2019-05-22T02:31:41.121Z,1012.45
2019-05-22T02:31:41.721Z,1012.45
2019-05-22T02:31:42.324Z,1012.46
2019-05-22T02:31:42.921Z,1012.49
2019-05-22T02:32:38.623Z,1012.55
2019-05-22T02:32:39.202Z,1012.39
2019-05-22T02:32:39.795Z,1012.45
2019-05-22T02:32:40.395Z,1012.47
2019-05-22T02:32:41.000Z,1012.46
2019-05-22T02:32:41.607Z,1012.51
2019-05-22T02:33:37.299Z,1012.53
2019-05-22T02:33:37.870Z,1012.42
2019-05-22T02:33:38.473Z,1012.42
2019-05-22T02:33:39.071Z,1012.45
2019-05-22T02:33:39.671Z,1012.45
2019-05-22T02:33:40.271Z,1012.44
2019-05-22T02:34:34.952Z,1012.56
2019-05-22T02:34:35.524Z,1012.43
2019-05-22T02:34:36.126Z,1012.43
2019-05-22T02:34:36.725Z,1012.48
2019-05-22T02:34:37.328Z,1012.46
2019-05-22T02:35:32.603Z,1012.51
2019-05-22T02:35:33.177Z,1012.40
2019-05-22T02:35:33.863Z,1012.40
2019-05-22T02:35:34.380Z,1012.44
2019-05-22T02:35:34.976Z,1012.48
2019-05-22T02:35:35.578Z,1012.45
2019-05-22T02:39:38.265Z,1012.59
2019-05-22T02:39:38.845Z,1012.50
2019-05-22T02:39:39.444Z,1012.50
2019-05-22T02:39:40.037Z,1012.49
2019-05-22T02:39:40.639Z,1012.49
2019-05-22T02:39:41.328Z,1012.50
2019-05-22T02:40:39.406Z,1012.56
2019-05-22T02:40:39.968Z,1012.42
2019-05-22T02:40:40.569Z,1012.45
2019-05-22T02:40:41.169Z,1012.48
2019-05-22T02:40:41.771Z,1012.49
2019-05-22T02:40:42.370Z,1012.49
2019-05-22T02:41:38.075Z,1012.55
2019-05-22T02:41:38.649Z,1012.44
2019-05-22T02:41:39.243Z,1012.47
2019-05-22T02:41:39.844Z,1012.44
2019-05-22T02:41:40.445Z,1012.48
2019-05-22T02:41:41.046Z,1012.47
2019-05-22T02:42:36.749Z,1012.57
2019-05-22T02:42:37.321Z,1012.44
2019-05-22T02:42:37.920Z,1012.41
2019-05-22T02:42:38.520Z,1012.45
2019-05-22T02:42:39.126Z,1012.48
2019-05-22T02:42:39.720Z,1012.45
2019-05-22T02:43:35.424Z,1012.53